Time;durP1;ratioP1;P1;durP2;ratioP2;P2;SDS_P1;SDS_P2;PMS_P1;PMS_P2;Temp;Humidity;BMP_temperature;BMP_pressure;BME280_temperature;BME280_humidity;BME280_pressure;Samples;Min_cycle;Max_cycle;Signal;HPM_P1;HPM_P2
2022/05/04 17:45:26;;;;;;;;;;;14.60;50.40;;;;;;4266794;27;25480909;-89
2022/05/04 17:47:52;;;;;;;;;;;14.40;50.90;;;;;;5151394;27;20312;-88
2022/05/04 17:50:18;;;;;;;;;;;14.40;48.40;;;;;;5167275;27;19918;-89
2022/05/04 17:52:45;;;;;;;;;;;14.40;49.00;;;;;;5164655;27;19993;-89
2022/05/04 17:55:19;;;;;;;;;;;14.40;48.90;;;;;;5142235;27;20281;-87
2022/05/04 17:57:44;;;;;;;;;;;14.50;49.00;;;;;;5137267;27;20032;-89
2022/05/04 18:00:10;;;;;;;;;;;14.50;49.30;;;;;;5125907;28;20005;-92
2022/05/04 18:05:20;;;;;;;;;;;14.50;48.30;;;;;;5130451;27;20387;-90
2022/05/04 18:07:46;;;;;;;;;;;14.50;46.70;;;;;;5111903;28;19921;-89
2022/05/04 18:10:11;;;;;;;;;;;14.50;47.50;;;;;;5111034;28;20011;-89
2022/05/04 18:12:40;;;;;;;;;;;14.40;48.00;;;;;;5112300;28;19928;-90
2022/05/04 18:15:07;;;;;;;;;;;14.40;47.20;;;;;;5115427;27;20041;-91
2022/05/04 18:17:34;;;;;;;;;;;14.40;47.30;;;;;;5141414;27;19919;-88
2022/05/04 18:20:00;;;;;;;;;;;14.40;47.60;;;;;;5114995;28;19912;-89
2022/05/04 18:22:26;;;;;;;;;;;14.40;47.20;;;;;;5124817;27;19919;-90
2022/05/04 18:24:52;;;;;;;;;;;14.30;47.10;;;;;;5133585;27;19911;-89
2022/05/04 18:27:17;;;;;;;;;;;14.30;47.00;;;;;;5139997;27;19918;-90
2022/05/04 18:29:43;;;;;;;;;;;14.20;47.00;;;;;;5132797;27;19954;-92
2022/05/04 18:32:08;;;;;;;;;;;14.20;47.30;;;;;;5135830;27;19911;-89
2022/05/04 18:34:34;;;;;;;;;;;14.20;47.20;;;;;;5131646;27;19919;-89
2022/05/04 18:36:59;;;;;;;;;;;14.10;46.40;;;;;;5147121;27;19919;-91
2022/05/04 18:39:25;;;;;;;;;;;14.10;46.60;;;;;;5137016;27;19912;-89
2022/05/04 18:41:51;;;;;;;;;;;14.10;47.10;;;;;;5130355;27;19947;-90
2022/05/04 18:44:16;;;;;;;;;;;14.00;46.80;;;;;;5144825;27;19953;-88
2022/05/04 18:46:42;;;;;;;;;;;13.90;47.20;;;;;;5133560;27;19911;-91
2022/05/04 18:49:08;;;;;;;;;;;13.80;47.20;;;;;;5146535;27;19935;-93
2022/05/04 18:51:33;;;;;;;;;;;13.80;47.60;;;;;;5140476;27;19957;-89
2022/05/04 18:54:00;;;;;;;;;;;13.70;47.80;;;;;;5128537;28;19963;-90
2022/05/04 18:56:25;;;;;;;;;;;13.70;48.10;;;;;;5125217;28;20009;-91
2022/05/04 18:58:53;;;;;;;;;;;13.60;48.40;;;;;;5126550;27;20358;-90
2022/05/04 19:01:18;;;;;;;;;;;13.60;48.70;;;;;;5148150;27;19995;-89
2022/05/04 19:03:44;;;;;;;;;;;13.50;48.90;;;;;;5130015;28;19939;-90
2022/05/04 19:06:10;;;;;;;;;;;13.40;49.00;;;;;;5120345;27;20716;-89
2022/05/04 19:08:35;;;;;;;;;;;13.30;49.40;;;;;;5117507;28;20007;-90
2022/05/04 19:11:09;;;;;;;;;;;13.20;49.50;;;;;;5117787;28;19908;-89
2022/05/04 19:13:37;;;;;;;;;;;13.20;49.80;;;;;;5117457;28;20384;-89
2022/05/04 19:16:03;;;;;;;;;;;13.10;50.60;;;;;;5115796;28;19919;-89
2022/05/04 19:18:28;;;;;;;;;;;13.00;50.40;;;;;;5117468;28;19908;-90
2022/05/04 19:20:54;;;;;;;;;;;12.90;50.60;;;;;;5117222;28;20006;-90
2022/05/04 19:23:19;;;;;;;;;;;12.80;50.80;;;;;;5116024;28;20363;-91
